sensor_id;sensor_type;location;lat;lon;timestamp;P1;durP1;ratioP1;P2;durP2;ratioP2
44228;SDS011;29904;51.058;5.378;2023-02-15T00:01:39;27.15;;;15.40;;
44228;SDS011;29904;51.058;5.378;2023-02-15T00:04:05;26.65;;;15.25;;
44228;SDS011;29904;51.058;5.378;2023-02-15T00:06:31;27.58;;;15.00;;
44228;SDS011;29904;51.058;5.378;2023-02-15T00:08:57;27.90;;;15.97;;
44228;SDS011;29904;51.058;5.378;2023-02-15T00:11:24;30.45;;;16.77;;
44228;SDS011;29904;51.058;5.378;2023-02-15T00:14:05;28.58;;;16.33;;
44228;SDS011;29904;51.058;5.378;2023-02-15T00:16:31;28.50;;;15.57;;
44228;SDS011;29904;51.058;5.378;2023-02-15T00:18:57;28.23;;;15.93;;
44228;SDS011;29904;51.058;5.378;2023-02-15T00:21:26;28.90;;;16.30;;
44228;SDS011;29904;51.058;5.378;2023-02-15T00:23:54;29.80;;;16.33;;
44228;SDS011;29904;51.058;5.378;2023-02-15T00:26:20;28.65;;;16.02;;
44228;SDS011;29904;51.058;5.378;2023-02-15T00:28:45;29.80;;;16.65;;
44228;SDS011;29904;51.058;5.378;2023-02-15T00:31:12;31.33;;;17.10;;
44228;SDS011;29904;51.058;5.378;2023-02-15T00:33:38;33.67;;;17.80;;
44228;SDS011;29904;51.058;5.378;2023-02-15T00:36:05;31.33;;;17.38;;
44228;SDS011;29904;51.058;5.378;2023-02-15T00:38:32;34.70;;;17.98;;
44228;SDS011;29904;51.058;5.378;2023-02-15T00:40:59;34.17;;;18.95;;
44228;SDS011;29904;51.058;5.378;2023-02-15T00:43:28;33.90;;;18.38;;
44228;SDS011;29904;51.058;5.378;2023-02-15T00:45:55;32.97;;;17.55;;
44228;SDS011;29904;51.058;5.378;2023-02-15T00:48:21;28.05;;;15.77;;
44228;SDS011;29904;51.058;5.378;2023-02-15T00:50:49;26.15;;;15.32;;
44228;SDS011;29904;51.058;5.378;2023-02-15T00:53:19;28.92;;;15.48;;
44228;SDS011;29904;51.058;5.378;2023-02-15T00:55:46;27.25;;;15.65;;
44228;SDS011;29904;51.058;5.378;2023-02-15T00:58:14;30.30;;;15.68;;
44228;SDS011;29904;51.058;5.378;2023-02-15T01:00:40;30.33;;;16.38;;
44228;SDS011;29904;51.058;5.378;2023-02-15T01:03:08;27.40;;;15.80;;
44228;SDS011;29904;51.058;5.378;2023-02-15T01:05:35;27.37;;;16.00;;
44228;SDS011;29904;51.058;5.378;2023-02-15T01:08:01;26.38;;;15.50;;
44228;SDS011;29904;51.058;5.378;2023-02-15T01:10:27;26.17;;;15.00;;
44228;SDS011;29904;51.058;5.378;2023-02-15T01:12:53;28.90;;;16.77;;
44228;SDS011;29904;51.058;5.378;2023-02-15T01:15:20;30.55;;;16.80;;
44228;SDS011;29904;51.058;5.378;2023-02-15T01:17:46;30.00;;;16.65;;
44228;SDS011;29904;51.058;5.378;2023-02-15T01:20:22;29.58;;;16.70;;
44228;SDS011;29904;51.058;5.378;2023-02-15T01:22:50;30.48;;;17.15;;
44228;SDS011;29904;51.058;5.378;2023-02-15T01:25:21;28.98;;;16.42;;
44228;SDS011;29904;51.058;5.378;2023-02-15T01:27:48;32.45;;;17.30;;
44228;SDS011;29904;51.058;5.378;2023-02-15T01:30:14;28.27;;;16.60;;
44228;SDS011;29904;51.058;5.378;2023-02-15T01:32:41;30.23;;;17.20;;
44228;SDS011;29904;51.058;5.378;2023-02-15T01:35:07;30.15;;;17.27;;
44228;SDS011;29904;51.058;5.378;2023-02-15T01:37:33;31.45;;;17.15;;
44228;SDS011;29904;51.058;5.378;2023-02-15T01:40:02;24.85;;;14.98;;
44228;SDS011;29904;51.058;5.378;2023-02-15T01:42:30;26.20;;;15.07;;
44228;SDS011;29904;51.058;5.378;2023-02-15T01:44:57;29.38;;;15.98;;
44228;SDS011;29904;51.058;5.378;2023-02-15T01:47:38;28.58;;;16.00;;
44228;SDS011;29904;51.058;5.378;2023-02-15T01:52:52;30.50;;;17.60;;
44228;SDS011;29904;51.058;5.378;2023-02-15T01:56:00;29.00;;;16.35;;
44228;SDS011;29904;51.058;5.378;2023-02-15T01:58:27;26.13;;;14.85;;
44228;SDS011;29904;51.058;5.378;2023-02-15T02:00:54;28.05;;;15.73;;
44228;SDS011;29904;51.058;5.378;2023-02-15T02:03:29;26.77;;;15.57;;
44228;SDS011;29904;51.058;5.378;2023-02-15T02:06:08;29.45;;;16.35;;
44228;SDS011;29904;51.058;5.378;2023-02-15T02:08:36;32.38;;;18.17;;
44228;SDS011;29904;51.058;5.378;2023-02-15T02:11:02;31.08;;;18.08;;
44228;SDS011;29904;51.058;5.378;2023-02-15T02:13:34;32.08;;;18.00;;
44228;SDS011;29904;51.058;5.378;2023-02-15T02:16:04;29.45;;;16.02;;
44228;SDS011;29904;51.058;5.378;2023-02-15T02:29:26;28.98;;;16.95;;
44228;SDS011;29904;51.058;5.378;2023-02-15T02:38:10;32.63;;;17.50;;
44228;SDS011;29904;51.058;5.378;2023-02-15T02:43:54;31.15;;;17.92;;
44228;SDS011;29904;51.058;5.378;2023-02-15T02:46:28;33.33;;;18.17;;
44228;SDS011;29904;51.058;5.378;2023-02-15T02:48:59;31.52;;;17.67;;
44228;SDS011;29904;51.058;5.378;2023-02-15T02:51:26;32.00;;;18.35;;
44228;SDS011;29904;51.058;5.378;2023-02-15T02:53:56;27.92;;;16.10;;
44228;SDS011;29904;51.058;5.378;2023-02-15T02:56:27;26.25;;;15.75;;
44228;SDS011;29904;51.058;5.378;2023-02-15T02:59:10;28.55;;;16.55;;
44228;SDS011;29904;51.058;5.378;2023-02-15T03:01:42;28.48;;;16.58;;
44228;SDS011;29904;51.058;5.378;2023-02-15T03:04:15;27.50;;;15.70;;
44228;SDS011;29904;51.058;5.378;2023-02-15T03:06:50;26.95;;;14.95;;
44228;SDS011;29904;51.058;5.378;2023-02-15T03:09:30;28.43;;;16.33;;
44228;SDS011;29904;51.058;5.378;2023-02-15T03:12:12;30.00;;;16.90;;
44228;SDS011;29904;51.058;5.378;2023-02-15T03:14:41;26.73;;;15.13;;
44228;SDS011;29904;51.058;5.378;2023-02-15T03:17:11;28.45;;;15.77;;
44228;SDS011;29904;51.058;5.378;2023-02-15T03:19:39;27.17;;;16.17;;
44228;SDS011;29904;51.058;5.378;2023-02-15T03:22:17;31.65;;;18.45;;
44228;SDS011;29904;51.058;5.378;2023-02-15T03:24:56;28.88;;;17.73;;
44228;SDS011;29904;51.058;5.378;2023-02-15T03:27:40;31.42;;;17.83;;
44228;SDS011;29904;51.058;5.378;2023-02-15T03:30:10;28.80;;;16.87;;
44228;SDS011;29904;51.058;5.378;2023-02-15T03:32:39;30.77;;;16.02;;
44228;SDS011;29904;51.058;5.378;2023-02-15T03:35:08;29.00;;;16.50;;
44228;SDS011;29904;51.058;5.378;2023-02-15T03:37:47;29.25;;;17.08;;
44228;SDS011;29904;51.058;5.378;2023-02-15T03:40:37;28.40;;;16.88;;
44228;SDS011;29904;51.058;5.378;2023-02-15T03:49:07;23.92;;;14.38;;
44228;SDS011;29904;51.058;5.378;2023-02-15T03:51:37;26.38;;;15.25;;
44228;SDS011;29904;51.058;5.378;2023-02-15T03:54:12;26.48;;;16.23;;
44228;SDS011;29904;51.058;5.378;2023-02-15T03:57:07;33.20;;;19.35;;
44228;SDS011;29904;51.058;5.378;2023-02-15T03:59:53;32.38;;;18.27;;
44228;SDS011;29904;51.058;5.378;2023-02-15T04:02:40;30.45;;;17.60;;
44228;SDS011;29904;51.058;5.378;2023-02-15T04:05:17;29.23;;;16.80;;
44228;SDS011;29904;51.058;5.378;2023-02-15T04:07:43;31.00;;;18.13;;
44228;SDS011;29904;51.058;5.378;2023-02-15T04:10:08;28.87;;;17.00;;
44228;SDS011;29904;51.058;5.378;2023-02-15T04:12:53;29.50;;;16.58;;
44228;SDS011;29904;51.058;5.378;2023-02-15T04:15:19;28.63;;;16.65;;
44228;SDS011;29904;51.058;5.378;2023-02-15T04:18:03;27.70;;;15.82;;
44228;SDS011;29904;51.058;5.378;2023-02-15T04:20:29;29.75;;;15.93;;
44228;SDS011;29904;51.058;5.378;2023-02-15T04:23:13;30.20;;;17.50;;
44228;SDS011;29904;51.058;5.378;2023-02-15T04:26:02;35.93;;;19.30;;
44228;SDS011;29904;51.058;5.378;2023-02-15T04:28:29;36.33;;;20.38;;
44228;SDS011;29904;51.058;5.378;2023-02-15T04:30:57;32.08;;;18.55;;
44228;SDS011;29904;51.058;5.378;2023-02-15T04:33:22;28.73;;;15.93;;
44228;SDS011;29904;51.058;5.378;2023-02-15T04:35:48;25.60;;;15.87;;
44228;SDS011;29904;51.058;5.378;2023-02-15T04:38:14;26.40;;;15.30;;
44228;SDS011;29904;51.058;5.378;2023-02-15T04:40:40;30.08;;;16.55;;
44228;SDS011;29904;51.058;5.378;2023-02-15T04:43:05;32.13;;;17.75;;
44228;SDS011;29904;51.058;5.378;2023-02-15T04:45:31;29.40;;;16.55;;
44228;SDS011;29904;51.058;5.378;2023-02-15T04:47:57;34.67;;;18.27;;
44228;SDS011;29904;51.058;5.378;2023-02-15T04:50:23;30.77;;;17.83;;
44228;SDS011;29904;51.058;5.378;2023-02-15T04:52:48;28.23;;;16.13;;
44228;SDS011;29904;51.058;5.378;2023-02-15T04:55:14;30.65;;;16.55;;
44228;SDS011;29904;51.058;5.378;2023-02-15T04:57:40;31.63;;;17.50;;
44228;SDS011;29904;51.058;5.378;2023-02-15T05:00:05;35.13;;;19.87;;
44228;SDS011;29904;51.058;5.378;2023-02-15T05:02:33;33.93;;;18.90;;
44228;SDS011;29904;51.058;5.378;2023-02-15T05:04:59;34.33;;;18.42;;
44228;SDS011;29904;51.058;5.378;2023-02-15T05:07:24;29.92;;;17.38;;
44228;SDS011;29904;51.058;5.378;2023-02-15T05:09:50;34.80;;;19.92;;
44228;SDS011;29904;51.058;5.378;2023-02-15T05:12:16;32.73;;;18.97;;
44228;SDS011;29904;51.058;5.378;2023-02-15T05:14:42;36.20;;;19.70;;
44228;SDS011;29904;51.058;5.378;2023-02-15T05:17:09;32.28;;;17.80;;
44228;SDS011;29904;51.058;5.378;2023-02-15T05:19:37;32.28;;;18.33;;
44228;SDS011;29904;51.058;5.378;2023-02-15T05:22:02;34.63;;;18.65;;
44228;SDS011;29904;51.058;5.378;2023-02-15T05:24:28;29.58;;;17.20;;
44228;SDS011;29904;51.058;5.378;2023-02-15T05:27:12;30.58;;;16.90;;
44228;SDS011;29904;51.058;5.378;2023-02-15T05:29:56;30.70;;;17.50;;
44228;SDS011;29904;51.058;5.378;2023-02-15T05:32:24;31.55;;;17.20;;
44228;SDS011;29904;51.058;5.378;2023-02-15T05:34:50;28.07;;;16.13;;
44228;SDS011;29904;51.058;5.378;2023-02-15T05:37:16;31.00;;;16.65;;
44228;SDS011;29904;51.058;5.378;2023-02-15T05:39:41;27.30;;;15.85;;
44228;SDS011;29904;51.058;5.378;2023-02-15T05:42:09;28.38;;;16.45;;
44228;SDS011;29904;51.058;5.378;2023-02-15T05:44:34;28.83;;;16.13;;
44228;SDS011;29904;51.058;5.378;2023-02-15T05:47:00;26.83;;;15.83;;
44228;SDS011;29904;51.058;5.378;2023-02-15T05:49:28;30.15;;;16.95;;
44228;SDS011;29904;51.058;5.378;2023-02-15T05:51:53;29.73;;;16.63;;
44228;SDS011;29904;51.058;5.378;2023-02-15T05:54:19;28.65;;;16.52;;
44228;SDS011;29904;51.058;5.378;2023-02-15T05:56:45;30.88;;;17.80;;
44228;SDS011;29904;51.058;5.378;2023-02-15T05:59:11;30.93;;;17.43;;
44228;SDS011;29904;51.058;5.378;2023-02-15T06:01:37;31.25;;;17.75;;
44228;SDS011;29904;51.058;5.378;2023-02-15T06:04:05;32.30;;;18.63;;
44228;SDS011;29904;51.058;5.378;2023-02-15T06:06:31;36.27;;;20.47;;
44228;SDS011;29904;51.058;5.378;2023-02-15T06:08:56;35.70;;;19.48;;
44228;SDS011;29904;51.058;5.378;2023-02-15T06:11:22;35.65;;;19.42;;
44228;SDS011;29904;51.058;5.378;2023-02-15T06:13:48;33.45;;;19.73;;
44228;SDS011;29904;51.058;5.378;2023-02-15T06:16:13;31.63;;;18.13;;
44228;SDS011;29904;51.058;5.378;2023-02-15T06:18:40;32.10;;;18.10;;
44228;SDS011;29904;51.058;5.378;2023-02-15T06:21:06;33.08;;;17.83;;
44228;SDS011;29904;51.058;5.378;2023-02-15T06:23:32;32.70;;;17.83;;
44228;SDS011;29904;51.058;5.378;2023-02-15T06:25:58;31.75;;;17.55;;
44228;SDS011;29904;51.058;5.378;2023-02-15T06:28:24;32.08;;;18.23;;
44228;SDS011;29904;51.058;5.378;2023-02-15T06:30:50;31.42;;;18.48;;
44228;SDS011;29904;51.058;5.378;2023-02-15T06:33:17;31.75;;;19.02;;
44228;SDS011;29904;51.058;5.378;2023-02-15T06:35:42;31.60;;;18.08;;
44228;SDS011;29904;51.058;5.378;2023-02-15T06:38:09;31.00;;;18.10;;
44228;SDS011;29904;51.058;5.378;2023-02-15T06:40:35;30.83;;;18.00;;
44228;SDS011;29904;51.058;5.378;2023-02-15T06:43:01;30.95;;;17.30;;
44228;SDS011;29904;51.058;5.378;2023-02-15T06:45:26;31.42;;;17.63;;
44228;SDS011;29904;51.058;5.378;2023-02-15T06:47:52;32.90;;;18.10;;
44228;SDS011;29904;51.058;5.378;2023-02-15T06:50:20;31.73;;;17.55;;
44228;SDS011;29904;51.058;5.378;2023-02-15T06:52:46;29.57;;;17.73;;
44228;SDS011;29904;51.058;5.378;2023-02-15T06:55:11;33.40;;;17.95;;
44228;SDS011;29904;51.058;5.378;2023-02-15T06:57:37;35.15;;;18.60;;
44228;SDS011;29904;51.058;5.378;2023-02-15T07:00:03;31.73;;;18.27;;
44228;SDS011;29904;51.058;5.378;2023-02-15T07:02:30;31.63;;;18.25;;
44228;SDS011;29904;51.058;5.378;2023-02-15T07:04:56;35.72;;;19.48;;
44228;SDS011;29904;51.058;5.378;2023-02-15T07:07:22;37.07;;;20.40;;
44228;SDS011;29904;51.058;5.378;2023-02-15T07:09:48;32.08;;;18.25;;
44228;SDS011;29904;51.058;5.378;2023-02-15T07:12:13;31.17;;;17.90;;
44228;SDS011;29904;51.058;5.378;2023-02-15T07:14:58;31.08;;;17.15;;
44228;SDS011;29904;51.058;5.378;2023-02-15T07:17:24;30.10;;;17.10;;
44228;SDS011;29904;51.058;5.378;2023-02-15T07:19:53;32.30;;;17.27;;
44228;SDS011;29904;51.058;5.378;2023-02-15T07:22:19;32.60;;;18.80;;
44228;SDS011;29904;51.058;5.378;2023-02-15T07:24:45;31.20;;;17.20;;
44228;SDS011;29904;51.058;5.378;2023-02-15T07:27:10;33.22;;;18.60;;
44228;SDS011;29904;51.058;5.378;2023-02-15T07:29:36;33.83;;;19.40;;
44228;SDS011;29904;51.058;5.378;2023-02-15T07:32:04;33.85;;;18.55;;
44228;SDS011;29904;51.058;5.378;2023-02-15T07:34:29;34.80;;;20.07;;
44228;SDS011;29904;51.058;5.378;2023-02-15T07:36:55;30.93;;;17.37;;
44228;SDS011;29904;51.058;5.378;2023-02-15T07:39:21;32.75;;;18.40;;
44228;SDS011;29904;51.058;5.378;2023-02-15T07:41:48;32.63;;;18.25;;
44228;SDS011;29904;51.058;5.378;2023-02-15T07:44:14;31.98;;;18.80;;
44228;SDS011;29904;51.058;5.378;2023-02-15T07:46:40;39.03;;;19.15;;
44228;SDS011;29904;51.058;5.378;2023-02-15T07:49:08;34.33;;;18.95;;
44228;SDS011;29904;51.058;5.378;2023-02-15T07:51:34;31.88;;;17.75;;
44228;SDS011;29904;51.058;5.378;2023-02-15T07:53:59;33.65;;;20.17;;
44228;SDS011;29904;51.058;5.378;2023-02-15T07:56:25;39.17;;;21.35;;
44228;SDS011;29904;51.058;5.378;2023-02-15T07:58:51;36.73;;;20.83;;
44228;SDS011;29904;51.058;5.378;2023-02-15T08:01:17;36.70;;;20.50;;
44228;SDS011;29904;51.058;5.378;2023-02-15T08:03:49;38.33;;;22.13;;
44228;SDS011;29904;51.058;5.378;2023-02-15T08:06:15;38.40;;;20.95;;
44228;SDS011;29904;51.058;5.378;2023-02-15T08:08:41;35.50;;;20.47;;
44228;SDS011;29904;51.058;5.378;2023-02-15T08:11:15;34.75;;;20.60;;
44228;SDS011;29904;51.058;5.378;2023-02-15T08:13:59;39.22;;;21.50;;
44228;SDS011;29904;51.058;5.378;2023-02-15T08:19:20;35.38;;;19.42;;
44228;SDS011;29904;51.058;5.378;2023-02-15T08:21:52;35.15;;;19.88;;
44228;SDS011;29904;51.058;5.378;2023-02-15T08:24:22;35.75;;;19.00;;
44228;SDS011;29904;51.058;5.378;2023-02-15T08:26:51;34.42;;;19.40;;
44228;SDS011;29904;51.058;5.378;2023-02-15T08:29:18;34.15;;;19.23;;
44228;SDS011;29904;51.058;5.378;2023-02-15T08:31:47;31.40;;;18.38;;
44228;SDS011;29904;51.058;5.378;2023-02-15T08:34:14;34.47;;;20.02;;
44228;SDS011;29904;51.058;5.378;2023-02-15T08:36:43;33.22;;;19.15;;
44228;SDS011;29904;51.058;5.378;2023-02-15T08:39:13;34.17;;;18.95;;
44228;SDS011;29904;51.058;5.378;2023-02-15T08:41:42;34.72;;;18.92;;
44228;SDS011;29904;51.058;5.378;2023-02-15T08:44:09;34.28;;;19.50;;
44228;SDS011;29904;51.058;5.378;2023-02-15T08:46:39;34.50;;;19.33;;
44228;SDS011;29904;51.058;5.378;2023-02-15T08:49:08;33.00;;;19.30;;
44228;SDS011;29904;51.058;5.378;2023-02-15T08:51:37;33.10;;;19.02;;
44228;SDS011;29904;51.058;5.378;2023-02-15T08:54:12;31.65;;;18.02;;
44228;SDS011;29904;51.058;5.378;2023-02-15T08:56:39;31.60;;;16.95;;
44228;SDS011;29904;51.058;5.378;2023-02-15T08:59:07;29.58;;;17.00;;
44228;SDS011;29904;51.058;5.378;2023-02-15T09:01:37;32.35;;;18.10;;
44228;SDS011;29904;51.058;5.378;2023-02-15T09:04:04;29.33;;;17.17;;
44228;SDS011;29904;51.058;5.378;2023-02-15T09:06:33;28.80;;;16.48;;
44228;SDS011;29904;51.058;5.378;2023-02-15T09:08:59;32.28;;;16.88;;
44228;SDS011;29904;51.058;5.378;2023-02-15T09:11:26;28.45;;;17.25;;
44228;SDS011;29904;51.058;5.378;2023-02-15T09:16:22;30.95;;;17.83;;
44228;SDS011;29904;51.058;5.378;2023-02-15T09:18:50;30.38;;;17.20;;
44228;SDS011;29904;51.058;5.378;2023-02-15T09:21:17;30.33;;;17.13;;
44228;SDS011;29904;51.058;5.378;2023-02-15T09:23:45;28.85;;;16.35;;
44228;SDS011;29904;51.058;5.378;2023-02-15T09:26:13;31.95;;;17.27;;
44228;SDS011;29904;51.058;5.378;2023-02-15T09:28:40;29.17;;;16.67;;
44228;SDS011;29904;51.058;5.378;2023-02-15T09:31:07;30.20;;;17.10;;
44228;SDS011;29904;51.058;5.378;2023-02-15T09:33:38;31.70;;;17.42;;
44228;SDS011;29904;51.058;5.378;2023-02-15T09:36:05;27.67;;;15.30;;
44228;SDS011;29904;51.058;5.378;2023-02-15T09:38:38;29.95;;;16.83;;
44228;SDS011;29904;51.058;5.378;2023-02-15T09:41:11;28.27;;;16.47;;
44228;SDS011;29904;51.058;5.378;2023-02-15T09:46:38;28.37;;;16.60;;
44228;SDS011;29904;51.058;5.378;2023-02-15T09:52:02;27.70;;;15.55;;
44228;SDS011;29904;51.058;5.378;2023-02-15T09:54:55;29.85;;;15.07;;
44228;SDS011;29904;51.058;5.378;2023-02-15T10:16:40;27.25;;;14.23;;
44228;SDS011;29904;51.058;5.378;2023-02-15T10:19:25;24.02;;;13.52;;
44228;SDS011;29904;51.058;5.378;2023-02-15T10:22:06;24.67;;;13.75;;
44228;SDS011;29904;51.058;5.378;2023-02-15T10:27:19;26.52;;;14.30;;
44228;SDS011;29904;51.058;5.378;2023-02-15T10:29:56;23.63;;;13.98;;
44228;SDS011;29904;51.058;5.378;2023-02-15T10:32:31;25.48;;;14.13;;
44228;SDS011;29904;51.058;5.378;2023-02-15T10:59:48;27.30;;;14.00;;
44228;SDS011;29904;51.058;5.378;2023-02-15T11:07:59;24.08;;;13.80;;
44228;SDS011;29904;51.058;5.378;2023-02-15T11:10:41;22.08;;;13.68;;
44228;SDS011;29904;51.058;5.378;2023-02-15T11:13:17;25.38;;;13.95;;
44228;SDS011;29904;51.058;5.378;2023-02-15T11:15:55;22.67;;;13.68;;
44228;SDS011;29904;51.058;5.378;2023-02-15T11:21:01;21.08;;;13.00;;
44228;SDS011;29904;51.058;5.378;2023-02-15T11:23:31;23.70;;;13.50;;
44228;SDS011;29904;51.058;5.378;2023-02-15T11:26:04;22.77;;;13.63;;
44228;SDS011;29904;51.058;5.378;2023-02-15T11:28:43;24.50;;;13.40;;
44228;SDS011;29904;51.058;5.378;2023-02-15T11:31:18;22.60;;;13.30;;
44228;SDS011;29904;51.058;5.378;2023-02-15T11:33:47;25.70;;;13.65;;
44228;SDS011;29904;51.058;5.378;2023-02-15T11:36:21;22.55;;;12.88;;
44228;SDS011;29904;51.058;5.378;2023-02-15T11:38:52;24.35;;;13.50;;
44228;SDS011;29904;51.058;5.378;2023-02-15T11:41:29;23.33;;;13.07;;
44228;SDS011;29904;51.058;5.378;2023-02-15T11:44:04;22.80;;;12.57;;
44228;SDS011;29904;51.058;5.378;2023-02-15T11:46:40;21.25;;;13.23;;
44228;SDS011;29904;51.058;5.378;2023-02-15T11:51:55;22.15;;;12.52;;
44228;SDS011;29904;51.058;5.378;2023-02-15T11:54:26;22.53;;;12.63;;
44228;SDS011;29904;51.058;5.378;2023-02-15T11:56:59;22.75;;;13.40;;
44228;SDS011;29904;51.058;5.378;2023-02-15T11:59:51;23.08;;;12.73;;
44228;SDS011;29904;51.058;5.378;2023-02-15T12:02:22;20.48;;;11.63;;
44228;SDS011;29904;51.058;5.378;2023-02-15T12:04:56;23.33;;;11.73;;
44228;SDS011;29904;51.058;5.378;2023-02-15T12:10:28;22.58;;;12.10;;
44228;SDS011;29904;51.058;5.378;2023-02-15T12:13:14;23.33;;;12.68;;
44228;SDS011;29904;51.058;5.378;2023-02-15T12:15:46;21.42;;;11.90;;
44228;SDS011;29904;51.058;5.378;2023-02-15T12:18:20;22.60;;;12.13;;
44228;SDS011;29904;51.058;5.378;2023-02-15T12:21:23;21.50;;;11.80;;
44228;SDS011;29904;51.058;5.378;2023-02-15T12:24:00;22.38;;;12.02;;
44228;SDS011;29904;51.058;5.378;2023-02-15T12:26:42;21.55;;;12.00;;
44228;SDS011;29904;51.058;5.378;2023-02-15T12:29:22;21.92;;;12.50;;
44228;SDS011;29904;51.058;5.378;2023-02-15T12:31:53;20.08;;;11.35;;
44228;SDS011;29904;51.058;5.378;2023-02-15T12:34:26;22.83;;;11.20;;
44228;SDS011;29904;51.058;5.378;2023-02-15T12:36:57;23.77;;;12.10;;
44228;SDS011;29904;51.058;5.378;2023-02-15T12:39:31;24.57;;;12.03;;
44228;SDS011;29904;51.058;5.378;2023-02-15T12:42:40;22.60;;;12.27;;
44228;SDS011;29904;51.058;5.378;2023-02-15T12:45:08;20.53;;;11.70;;
44228;SDS011;29904;51.058;5.378;2023-02-15T12:50:39;22.35;;;12.73;;
44228;SDS011;29904;51.058;5.378;2023-02-15T12:53:19;21.80;;;12.00;;
44228;SDS011;29904;51.058;5.378;2023-02-15T12:55:54;25.20;;;12.07;;
44228;SDS011;29904;51.058;5.378;2023-02-15T13:01:04;24.33;;;12.80;;
44228;SDS011;29904;51.058;5.378;2023-02-15T13:03:34;23.50;;;11.90;;
44228;SDS011;29904;51.058;5.378;2023-02-15T13:06:02;21.80;;;11.80;;
44228;SDS011;29904;51.058;5.378;2023-02-15T13:09:05;23.73;;;11.53;;
44228;SDS011;29904;51.058;5.378;2023-02-15T13:11:36;22.60;;;11.82;;
44228;SDS011;29904;51.058;5.378;2023-02-15T13:14:16;20.65;;;11.05;;
44228;SDS011;29904;51.058;5.378;2023-02-15T13:16:45;22.30;;;11.30;;
44228;SDS011;29904;51.058;5.378;2023-02-15T13:22:15;24.42;;;12.30;;
44228;SDS011;29904;51.058;5.378;2023-02-15T13:24:53;24.10;;;12.67;;
44228;SDS011;29904;51.058;5.378;2023-02-15T13:27:23;24.80;;;13.23;;
44228;SDS011;29904;51.058;5.378;2023-02-15T13:29:55;24.17;;;12.82;;
44228;SDS011;29904;51.058;5.378;2023-02-15T13:32:31;22.52;;;12.23;;
44228;SDS011;29904;51.058;5.378;2023-02-15T13:35:01;22.42;;;12.57;;
44228;SDS011;29904;51.058;5.378;2023-02-15T13:40:38;25.23;;;13.32;;
44228;SDS011;29904;51.058;5.378;2023-02-15T13:43:27;24.92;;;13.25;;
44228;SDS011;29904;51.058;5.378;2023-02-15T13:48:51;22.42;;;12.52;;
44228;SDS011;29904;51.058;5.378;2023-02-15T14:11:53;25.67;;;14.23;;
44228;SDS011;29904;51.058;5.378;2023-02-15T14:14:57;26.42;;;14.30;;
44228;SDS011;29904;51.058;5.378;2023-02-15T14:20:51;23.83;;;12.95;;
44228;SDS011;29904;51.058;5.378;2023-02-15T14:29:57;24.10;;;14.27;;
44228;SDS011;29904;51.058;5.378;2023-02-15T14:32:33;27.42;;;16.35;;
44228;SDS011;29904;51.058;5.378;2023-02-15T14:35:05;24.80;;;14.57;;
44228;SDS011;29904;51.058;5.378;2023-02-15T14:43:47;23.27;;;13.97;;
44228;SDS011;29904;51.058;5.378;2023-02-15T14:49:17;24.10;;;15.23;;
44228;SDS011;29904;51.058;5.378;2023-02-15T14:52:09;23.90;;;13.77;;
44228;SDS011;29904;51.058;5.378;2023-02-15T15:04:38;25.15;;;14.13;;
44228;SDS011;29904;51.058;5.378;2023-02-15T15:07:17;26.38;;;15.80;;
44228;SDS011;29904;51.058;5.378;2023-02-15T15:09:58;23.85;;;14.27;;
44228;SDS011;29904;51.058;5.378;2023-02-15T15:12:41;26.35;;;15.63;;
44228;SDS011;29904;51.058;5.378;2023-02-15T15:15:33;25.08;;;14.98;;
44228;SDS011;29904;51.058;5.378;2023-02-15T15:18:10;24.10;;;15.13;;
44228;SDS011;29904;51.058;5.378;2023-02-15T15:21:09;27.17;;;15.27;;
44228;SDS011;29904;51.058;5.378;2023-02-15T15:23:44;27.42;;;15.70;;
44228;SDS011;29904;51.058;5.378;2023-02-15T15:31:20;28.30;;;15.20;;
44228;SDS011;29904;51.058;5.378;2023-02-15T15:45:41;27.20;;;15.32;;
44228;SDS011;29904;51.058;5.378;2023-02-15T15:48:29;28.02;;;15.45;;
44228;SDS011;29904;51.058;5.378;2023-02-15T15:51:06;27.23;;;15.30;;
44228;SDS011;29904;51.058;5.378;2023-02-15T15:53:54;29.40;;;16.25;;
44228;SDS011;29904;51.058;5.378;2023-02-15T15:56:30;25.40;;;14.65;;
44228;SDS011;29904;51.058;5.378;2023-02-15T15:59:00;26.63;;;15.40;;
44228;SDS011;29904;51.058;5.378;2023-02-15T16:01:35;26.67;;;15.93;;
44228;SDS011;29904;51.058;5.378;2023-02-15T16:04:10;22.60;;;14.02;;
44228;SDS011;29904;51.058;5.378;2023-02-15T16:06:38;26.08;;;15.05;;
44228;SDS011;29904;51.058;5.378;2023-02-15T16:09:12;27.65;;;15.35;;
44228;SDS011;29904;51.058;5.378;2023-02-15T16:11:38;25.95;;;14.88;;
44228;SDS011;29904;51.058;5.378;2023-02-15T16:14:12;25.92;;;15.10;;
44228;SDS011;29904;51.058;5.378;2023-02-15T16:16:48;28.10;;;15.77;;
44228;SDS011;29904;51.058;5.378;2023-02-15T16:19:18;28.60;;;16.10;;
44228;SDS011;29904;51.058;5.378;2023-02-15T16:21:49;28.83;;;16.65;;
44228;SDS011;29904;51.058;5.378;2023-02-15T16:29:41;31.15;;;17.85;;
44228;SDS011;29904;51.058;5.378;2023-02-15T16:34:59;27.10;;;15.90;;
44228;SDS011;29904;51.058;5.378;2023-02-15T16:37:30;25.05;;;15.52;;
44228;SDS011;29904;51.058;5.378;2023-02-15T16:39:58;28.85;;;16.40;;
44228;SDS011;29904;51.058;5.378;2023-02-15T16:42:24;28.90;;;16.50;;
44228;SDS011;29904;51.058;5.378;2023-02-15T16:47:31;27.15;;;16.10;;
44228;SDS011;29904;51.058;5.378;2023-02-15T16:50:02;28.35;;;16.63;;
44228;SDS011;29904;51.058;5.378;2023-02-15T16:52:29;28.60;;;16.20;;
44228;SDS011;29904;51.058;5.378;2023-02-15T16:55:04;29.08;;;17.67;;
44228;SDS011;29904;51.058;5.378;2023-02-15T16:57:41;32.22;;;18.25;;
44228;SDS011;29904;51.058;5.378;2023-02-15T17:00:18;25.60;;;15.63;;
44228;SDS011;29904;51.058;5.378;2023-02-15T17:05:28;28.33;;;16.48;;
44228;SDS011;29904;51.058;5.378;2023-02-15T17:08:10;27.80;;;16.70;;
44228;SDS011;29904;51.058;5.378;2023-02-15T17:10:43;28.52;;;16.65;;
44228;SDS011;29904;51.058;5.378;2023-02-15T17:13:30;27.77;;;16.17;;
44228;SDS011;29904;51.058;5.378;2023-02-15T17:18:25;29.30;;;17.55;;
44228;SDS011;29904;51.058;5.378;2023-02-15T17:21:00;27.77;;;16.15;;
44228;SDS011;29904;51.058;5.378;2023-02-15T17:26:14;28.40;;;16.02;;
44228;SDS011;29904;51.058;5.378;2023-02-15T17:31:18;30.58;;;17.27;;
44228;SDS011;29904;51.058;5.378;2023-02-15T17:33:44;31.33;;;17.35;;
44228;SDS011;29904;51.058;5.378;2023-02-15T17:36:17;30.43;;;16.93;;
44228;SDS011;29904;51.058;5.378;2023-02-15T17:41:25;29.48;;;16.85;;
44228;SDS011;29904;51.058;5.378;2023-02-15T17:43:52;31.23;;;17.77;;
44228;SDS011;29904;51.058;5.378;2023-02-15T17:46:18;29.98;;;16.65;;
44228;SDS011;29904;51.058;5.378;2023-02-15T17:48:47;28.33;;;17.10;;
44228;SDS011;29904;51.058;5.378;2023-02-15T17:51:16;29.60;;;17.20;;
44228;SDS011;29904;51.058;5.378;2023-02-15T17:53:44;31.75;;;17.55;;
44228;SDS011;29904;51.058;5.378;2023-02-15T17:56:29;28.80;;;17.25;;
44228;SDS011;29904;51.058;5.378;2023-02-15T17:58:58;30.92;;;17.75;;
44228;SDS011;29904;51.058;5.378;2023-02-15T18:01:24;32.72;;;18.30;;
44228;SDS011;29904;51.058;5.378;2023-02-15T18:04:09;33.20;;;18.38;;
44228;SDS011;29904;51.058;5.378;2023-02-15T18:06:55;33.17;;;18.90;;
44228;SDS011;29904;51.058;5.378;2023-02-15T18:09:40;30.90;;;18.25;;
44228;SDS011;29904;51.058;5.378;2023-02-15T18:12:27;37.28;;;19.38;;